createdAt,value
2022-11-16T00:00:41.831Z,81.25
2022-11-16T00:02:13.905Z,81.20
2022-11-16T00:03:46.347Z,80.95
2022-11-16T00:05:21.160Z,81.10
2022-11-16T00:06:56.373Z,81.08
2022-11-16T00:08:31.804Z,81.24
2022-11-16T00:10:04.070Z,81.36
2022-11-16T00:11:36.377Z,81.35
2022-11-16T00:13:09.526Z,81.22
2022-11-16T00:14:41.423Z,81.08
2022-11-16T00:16:17.164Z,81.03
2022-11-16T00:17:51.931Z,81.10
2022-11-16T00:19:24.010Z,81.46
2022-11-16T00:20:55.879Z,81.49
2022-11-16T00:22:27.745Z,81.57
2022-11-16T00:23:59.728Z,81.36
2022-11-16T00:25:31.574Z,81.45
2022-11-16T00:27:03.467Z,81.54
2022-11-16T00:28:36.011Z,81.69
2022-11-16T00:30:10.227Z,81.48
2022-11-16T00:31:42.137Z,81.43
2022-11-16T00:33:15.174Z,81.27
2022-11-16T00:34:47.002Z,81.35
2022-11-16T00:36:18.909Z,81.45
2022-11-16T00:37:51.682Z,81.56
2022-11-16T00:39:23.509Z,81.55
2022-11-16T00:40:55.298Z,81.51
2022-11-16T00:42:27.145Z,81.46
2022-11-16T00:43:58.928Z,81.62
2022-11-16T00:45:30.757Z,81.92
2022-11-16T00:47:02.686Z,81.81
2022-11-16T00:48:34.865Z,81.78
2022-11-16T00:50:06.933Z,81.76
2022-11-16T00:51:38.875Z,81.68
2022-11-16T00:53:11.008Z,81.74
2022-11-16T00:54:42.878Z,81.47
2022-11-16T00:56:17.198Z,81.58
2022-11-16T00:57:49.104Z,81.44
2022-11-16T00:59:21.042Z,81.48
2022-11-16T01:00:52.941Z,81.67
2022-11-16T01:02:24.832Z,81.63
2022-11-16T01:03:56.935Z,81.58
2022-11-16T01:05:28.931Z,81.78
2022-11-16T01:07:00.848Z,82.17
2022-11-16T01:08:33.406Z,81.98
2022-11-16T01:10:06.240Z,81.93
2022-11-16T01:11:56.297Z,81.73
2022-11-16T01:13:28.131Z,81.75
2022-11-16T01:15:00.047Z,82.01
2022-11-16T01:16:32.242Z,81.71
2022-11-16T01:18:04.240Z,81.78
2022-11-16T01:19:36.915Z,81.60
2022-11-16T01:21:08.937Z,81.94
2022-11-16T01:22:40.944Z,81.88
2022-11-16T01:24:12.768Z,81.84
2022-11-16T01:25:44.701Z,81.81
2022-11-16T01:27:16.529Z,82.03
2022-11-16T01:28:48.412Z,81.97
2022-11-16T01:30:20.288Z,81.85
2022-11-16T01:31:52.338Z,82.23
2022-11-16T01:33:24.169Z,82.00
2022-11-16T01:34:55.938Z,82.17
2022-11-16T01:36:27.737Z,82.00
2022-11-16T01:38:00.287Z,82.20
2022-11-16T01:39:32.178Z,82.25
2022-11-16T01:41:03.980Z,82.41
2022-11-16T01:42:35.864Z,82.31
2022-11-16T01:44:27.851Z,82.29
2022-11-16T01:45:59.855Z,82.30
2022-11-16T01:47:31.874Z,82.26
2022-11-16T01:49:05.324Z,82.32
2022-11-16T01:50:37.199Z,82.34
2022-11-16T01:52:10.163Z,82.24
2022-11-16T01:53:41.996Z,82.12
2022-11-16T01:55:13.969Z,82.22
2022-11-16T01:56:46.079Z,82.21
2022-11-16T01:58:19.111Z,82.05
2022-11-16T01:59:52.837Z,82.26
2022-11-16T02:01:24.841Z,82.16
2022-11-16T02:02:56.736Z,82.49
2022-11-16T02:04:28.653Z,82.26
2022-11-16T02:06:19.001Z,82.47
2022-11-16T02:08:19.957Z,82.48
2022-11-16T02:09:54.569Z,82.55
2022-11-16T02:11:34.539Z,82.83
2022-11-16T02:13:11.739Z,82.97
2022-11-16T02:14:54.875Z,82.80
2022-11-16T02:16:36.792Z,82.99
2022-11-16T02:18:14.627Z,82.80
2022-11-16T02:19:55.775Z,82.95
2022-11-16T02:21:36.803Z,82.70
2022-11-16T02:23:08.549Z,82.86
2022-11-16T02:24:43.069Z,82.91
2022-11-16T02:26:19.040Z,82.84
2022-11-16T02:28:05.188Z,83.03
2022-11-16T02:29:47.218Z,82.84
2022-11-16T02:31:26.606Z,83.00
2022-11-16T02:33:02.672Z,82.93
2022-11-16T02:34:37.204Z,82.96
2022-11-16T02:36:09.820Z,82.83
2022-11-16T02:37:46.138Z,83.11
2022-11-16T02:39:19.169Z,83.16
2022-11-16T02:40:52.527Z,83.11
2022-11-16T02:42:28.685Z,83.16
2022-11-16T02:44:02.223Z,83.56
2022-11-16T02:45:34.586Z,83.43
2022-11-16T02:47:08.067Z,83.36
2022-11-16T02:48:41.754Z,83.50
2022-11-16T02:50:16.204Z,83.45
2022-11-16T02:51:48.172Z,83.48
2022-11-16T02:53:23.969Z,83.60
2022-11-16T02:54:55.858Z,83.66
2022-11-16T02:56:27.869Z,83.49
2022-11-16T02:58:01.488Z,83.68
2022-11-16T02:59:37.450Z,83.78
2022-11-16T03:01:10.273Z,83.57
2022-11-16T03:02:50.810Z,83.59
2022-11-16T03:04:25.331Z,83.42
2022-11-16T03:06:02.486Z,83.47
2022-11-16T03:07:44.564Z,83.32
2022-11-16T03:09:18.316Z,83.30
2022-11-16T03:11:29.031Z,83.49
2022-11-16T03:13:02.496Z,83.62
2022-11-16T03:14:48.144Z,83.65
2022-11-16T03:16:21.750Z,83.92
2022-11-16T03:17:53.747Z,83.98
2022-11-16T03:19:54.543Z,84.27
2022-11-16T03:21:46.667Z,84.32
2022-11-16T03:23:18.538Z,84.12
2022-11-16T03:24:50.486Z,84.41
2022-11-16T03:26:23.521Z,84.31
2022-11-16T03:28:03.208Z,84.43
2022-11-16T03:30:04.170Z,84.51
2022-11-16T03:31:37.667Z,84.40
2022-11-16T03:34:51.978Z,84.29
2022-11-16T03:36:33.169Z,84.19
2022-11-16T03:38:05.349Z,84.29
2022-11-16T03:39:38.116Z,84.30
2022-11-16T03:41:10.177Z,84.23
2022-11-16T03:42:42.196Z,84.26
2022-11-16T03:44:14.370Z,84.33
2022-11-16T03:45:46.152Z,84.53
2022-11-16T03:47:17.981Z,84.46
2022-11-16T03:48:54.136Z,84.57
2022-11-16T03:50:26.064Z,84.31
2022-11-16T03:51:57.925Z,84.33
2022-11-16T03:53:29.720Z,83.98
2022-11-16T03:55:01.540Z,83.74
2022-11-16T03:56:33.481Z,83.75
2022-11-16T03:58:05.571Z,83.56
2022-11-16T03:59:37.434Z,83.47
2022-11-16T04:01:09.457Z,83.44
2022-11-16T04:02:41.406Z,83.63
2022-11-16T04:04:36.125Z,83.48
2022-11-16T04:06:27.643Z,83.31
2022-11-16T04:08:17.808Z,83.12
2022-11-16T04:10:12.476Z,83.17
2022-11-16T04:12:04.340Z,82.96
2022-11-16T04:13:54.642Z,82.88
2022-11-16T04:15:45.001Z,83.04
2022-11-16T04:17:36.264Z,82.94
2022-11-16T04:19:28.018Z,82.66
2022-11-16T04:21:18.191Z,82.61
2022-11-16T04:23:08.858Z,82.75
2022-11-16T04:24:40.792Z,82.86
2022-11-16T04:26:12.747Z,82.94
2022-11-16T04:28:03.103Z,82.85
2022-11-16T04:29:35.019Z,83.12
2022-11-16T04:31:25.838Z,83.13
2022-11-16T04:33:16.087Z,83.02
2022-11-16T04:35:06.307Z,83.06
2022-11-16T04:38:17.459Z,82.89
2022-11-16T04:39:49.302Z,83.06
2022-11-16T04:41:39.672Z,82.94
2022-11-16T04:43:11.675Z,83.04
2022-11-16T04:45:01.921Z,83.04
2022-11-16T04:46:52.232Z,83.12
2022-11-16T04:48:24.122Z,83.31
2022-11-16T04:49:56.011Z,83.76
2022-11-16T04:51:28.021Z,83.89
2022-11-16T04:53:00.014Z,84.10
2022-11-16T04:54:31.929Z,84.07
2022-11-16T04:56:03.801Z,83.98
2022-11-16T04:57:35.683Z,83.98
2022-11-16T04:59:07.522Z,83.95
2022-11-16T05:00:39.658Z,83.96
2022-11-16T05:02:11.549Z,83.82
2022-11-16T05:03:46.273Z,83.88
2022-11-16T05:05:18.466Z,83.95
2022-11-16T05:06:50.392Z,84.03
2022-11-16T05:08:22.273Z,84.17
2022-11-16T05:09:54.275Z,84.33
2022-11-16T05:11:26.159Z,84.49
2022-11-16T05:12:58.021Z,84.28
2022-11-16T05:14:29.877Z,84.38
2022-11-16T05:16:01.798Z,84.60
2022-11-16T05:17:37.246Z,84.49
2022-11-16T05:19:27.778Z,84.68
2022-11-16T05:21:05.558Z,84.87
2022-11-16T05:22:37.434Z,85.12
2022-11-16T05:24:28.050Z,84.90
2022-11-16T05:25:59.961Z,85.01
2022-11-16T05:27:31.986Z,85.04
2022-11-16T05:29:03.907Z,85.20
2022-11-16T05:30:36.081Z,85.03
2022-11-16T05:32:08.335Z,85.42
2022-11-16T05:33:40.251Z,85.34
2022-11-16T05:35:12.444Z,85.41
2022-11-16T05:36:44.518Z,85.60
2022-11-16T05:38:19.258Z,85.65
2022-11-16T05:39:51.367Z,85.59
2022-11-16T05:41:23.241Z,85.60
2022-11-16T05:42:55.220Z,85.75
2022-11-16T05:44:27.241Z,85.96
2022-11-16T05:45:59.083Z,85.82
2022-11-16T05:47:31.031Z,86.07
2022-11-16T05:49:03.094Z,85.76
2022-11-16T05:50:39.885Z,85.67
2022-11-16T05:53:46.221Z,85.38
2022-11-16T05:55:18.105Z,85.28
2022-11-16T05:56:50.105Z,85.43
2022-11-16T05:58:22.012Z,85.51
2022-11-16T05:59:53.827Z,85.51
2022-11-16T06:01:26.045Z,85.97
2022-11-16T06:02:57.955Z,85.81
2022-11-16T06:04:30.018Z,85.74
2022-11-16T06:06:02.627Z,85.82
2022-11-16T06:07:34.549Z,85.80
2022-11-16T06:09:06.671Z,85.95
2022-11-16T06:10:38.524Z,86.15
2022-11-16T06:12:10.391Z,86.03
2022-11-16T06:13:42.248Z,86.10
2022-11-16T06:15:14.187Z,86.03
2022-11-16T06:16:46.048Z,85.93
2022-11-16T06:18:18.001Z,86.11
2022-11-16T06:19:50.001Z,86.06
2022-11-16T06:21:21.999Z,86.28
2022-11-16T06:22:54.211Z,86.30
2022-11-16T06:24:26.169Z,86.45
2022-11-16T06:25:58.166Z,86.56
2022-11-16T06:27:30.044Z,86.57
2022-11-16T06:29:01.954Z,86.56
2022-11-16T06:30:33.922Z,86.64
2022-11-16T06:32:05.893Z,86.65
2022-11-16T06:33:38.033Z,86.63
2022-11-16T06:35:10.460Z,86.61
2022-11-16T06:36:42.358Z,86.30
2022-11-16T06:38:19.022Z,86.51
2022-11-16T06:39:51.062Z,86.74
2022-11-16T06:41:23.030Z,86.93
2022-11-16T06:42:54.872Z,86.79
2022-11-16T06:44:26.840Z,86.70
2022-11-16T06:45:58.935Z,86.45
2022-11-16T06:47:30.851Z,86.65
2022-11-16T06:49:02.702Z,86.75
2022-11-16T06:50:35.254Z,86.54
2022-11-16T06:52:07.087Z,86.52
2022-11-16T06:53:39.150Z,86.40
2022-11-16T06:55:10.992Z,86.50
2022-11-16T06:56:42.842Z,86.24
2022-11-16T06:58:14.821Z,86.48
2022-11-16T06:59:46.748Z,86.69
2022-11-16T07:01:19.188Z,86.48
2022-11-16T07:02:51.383Z,86.60
2022-11-16T07:04:23.444Z,86.75
2022-11-16T07:05:55.812Z,86.93
2022-11-16T07:07:27.922Z,86.92
2022-11-16T07:08:59.804Z,87.24
2022-11-16T07:10:31.654Z,87.49
2022-11-16T07:12:04.366Z,87.55
2022-11-16T07:13:36.824Z,87.44
2022-11-16T07:15:08.971Z,87.70
2022-11-16T07:16:41.039Z,87.59
2022-11-16T07:18:13.232Z,87.80
2022-11-16T07:19:45.183Z,87.65
2022-11-16T07:22:48.884Z,87.49
2022-11-16T07:24:20.818Z,87.50
2022-11-16T07:25:52.734Z,87.62
2022-11-16T07:27:24.718Z,87.42
2022-11-16T07:28:56.662Z,87.58
2022-11-16T07:30:28.893Z,87.76
2022-11-16T07:32:01.053Z,87.66
2022-11-16T07:33:32.940Z,87.65
2022-11-16T07:35:14.781Z,87.82
2022-11-16T07:36:46.988Z,88.02
2022-11-16T07:38:18.900Z,87.86
2022-11-16T07:39:50.837Z,87.70
2022-11-16T07:41:22.834Z,87.93
2022-11-16T07:42:57.506Z,87.77
2022-11-16T07:44:29.628Z,87.79
2022-11-16T07:46:44.654Z,87.81
2022-11-16T07:48:01.276Z,87.41
2022-11-16T07:51:14.403Z,87.36
2022-11-16T07:52:46.996Z,87.48
2022-11-16T07:54:18.846Z,87.20
2022-11-16T07:55:54.070Z,87.56
2022-11-16T07:57:26.025Z,87.22
2022-11-16T07:58:59.412Z,87.15
2022-11-16T08:00:31.455Z,87.32
2022-11-16T08:02:03.321Z,87.47
2022-11-16T08:03:35.782Z,87.19
2022-11-16T08:05:07.840Z,87.15
2022-11-16T08:06:39.707Z,87.08
2022-11-16T08:08:12.049Z,87.09
2022-11-16T08:09:44.061Z,86.77
2022-11-16T08:11:15.989Z,86.86
2022-11-16T08:12:47.816Z,87.15
2022-11-16T08:14:19.863Z,86.88
2022-11-16T08:15:51.775Z,87.02
2022-11-16T08:17:23.751Z,86.70
2022-11-16T08:18:55.736Z,86.41
2022-11-16T08:22:05.607Z,86.20
2022-11-16T08:23:37.547Z,85.66
2022-11-16T08:25:10.032Z,85.70
2022-11-16T08:26:41.945Z,84.86
2022-11-16T08:28:14.881Z,84.92
2022-11-16T08:29:47.147Z,84.83
2022-11-16T08:31:21.284Z,84.51
2022-11-16T08:32:53.254Z,84.53
2022-11-16T08:34:25.331Z,84.58
2022-11-16T08:35:57.601Z,84.45
2022-11-16T08:37:29.568Z,84.22
2022-11-16T08:39:02.015Z,84.13
2022-11-16T08:40:33.976Z,83.66
2022-11-16T08:42:06.085Z,83.95
2022-11-16T08:43:42.585Z,83.39
2022-11-16T08:45:14.529Z,83.58
2022-11-16T08:46:46.584Z,83.10
2022-11-16T08:48:18.791Z,83.02
2022-11-16T08:49:50.670Z,83.02
2022-11-16T08:53:08.176Z,82.43
2022-11-16T08:54:41.668Z,82.37
2022-11-16T08:56:14.012Z,82.30
2022-11-16T08:57:46.064Z,81.83
2022-11-16T08:59:17.999Z,81.91
2022-11-16T09:00:49.899Z,81.68
2022-11-16T09:02:25.909Z,81.28
2022-11-16T09:03:58.043Z,81.12
2022-11-16T09:05:30.034Z,80.89
2022-11-16T09:07:02.134Z,80.87
2022-11-16T09:08:34.602Z,80.92
2022-11-16T09:10:07.459Z,80.68
2022-11-16T09:11:39.561Z,80.43
2022-11-16T09:13:11.531Z,80.38
2022-11-16T09:14:43.575Z,80.38
2022-11-16T09:16:18.466Z,80.08
2022-11-16T09:17:55.290Z,79.80
2022-11-16T09:19:27.484Z,79.11
2022-11-16T09:20:59.678Z,78.84
2022-11-16T09:22:31.661Z,78.71
2022-11-16T09:24:04.261Z,78.29
2022-11-16T09:25:36.381Z,78.10
2022-11-16T09:27:08.281Z,77.82
2022-11-16T09:28:43.255Z,77.69
2022-11-16T09:30:15.652Z,77.86
2022-11-16T09:31:47.811Z,77.19
2022-11-16T09:33:20.558Z,76.25
2022-11-16T09:34:52.548Z,75.95
2022-11-16T09:36:24.960Z,75.47
2022-11-16T09:37:56.924Z,74.89
2022-11-16T09:39:32.439Z,74.61
2022-11-16T09:43:10.276Z,74.11
2022-11-16T09:45:09.272Z,72.18
2022-11-16T09:46:47.405Z,72.16
2022-11-16T09:50:04.455Z,71.29
2022-11-16T09:51:36.599Z,70.40
2022-11-16T09:53:29.031Z,70.29
2022-11-16T09:55:02.155Z,69.70
2022-11-16T09:56:37.716Z,69.02
2022-11-16T09:58:12.583Z,69.43
2022-11-16T09:59:45.808Z,67.85
2022-11-16T10:01:27.060Z,68.54
2022-11-16T10:03:05.314Z,67.22
2022-11-16T10:04:44.332Z,66.69
2022-11-16T10:06:29.091Z,65.55
2022-11-16T10:08:07.333Z,65.69
2022-11-16T10:09:39.311Z,64.21
2022-11-16T10:11:24.389Z,63.66
2022-11-16T10:12:56.263Z,62.84
2022-11-16T10:14:47.206Z,64.08
2022-11-16T10:16:20.222Z,64.67
2022-11-16T10:18:12.205Z,62.81
2022-11-16T10:20:16.291Z,62.42
2022-11-16T10:22:00.156Z,63.62
2022-11-16T10:23:35.931Z,62.66
2022-11-16T10:25:17.760Z,61.72
2022-11-16T10:26:51.815Z,63.25
2022-11-16T10:28:26.817Z,61.72
2022-11-16T10:29:58.940Z,60.45
2022-11-16T10:31:46.155Z,58.26
2022-11-16T10:33:22.034Z,57.58
2022-11-16T10:35:14.567Z,58.69
2022-11-16T10:36:46.558Z,58.48
2022-11-16T10:38:20.346Z,59.24
2022-11-16T10:39:53.756Z,58.79
2022-11-16T10:41:33.176Z,57.90
2022-11-16T10:43:11.421Z,55.89
2022-11-16T10:45:19.115Z,56.59
2022-11-16T10:47:11.604Z,56.43
2022-11-16T10:48:47.340Z,53.99
2022-11-16T10:50:32.902Z,54.16
2022-11-16T10:52:04.958Z,50.84
2022-11-16T10:53:40.657Z,50.32
2022-11-16T10:55:15.728Z,52.81
2022-11-16T10:56:48.370Z,53.99
2022-11-16T10:58:20.196Z,54.73
2022-11-16T10:59:56.676Z,54.54
2022-11-16T11:01:58.177Z,54.45
2022-11-16T11:05:06.330Z,54.78
2022-11-16T11:06:38.360Z,54.04
2022-11-16T11:08:11.670Z,55.09
2022-11-16T11:09:43.697Z,52.82
2022-11-16T11:11:39.166Z,52.23
2022-11-16T11:13:11.077Z,51.72
2022-11-16T11:14:43.160Z,50.72
2022-11-16T11:16:16.808Z,49.15
2022-11-16T11:17:49.579Z,49.49
2022-11-16T11:19:25.866Z,48.57
2022-11-16T11:21:19.600Z,48.77
2022-11-16T11:23:01.884Z,48.60
2022-11-16T11:24:49.028Z,47.30
2022-11-16T11:26:31.720Z,47.36
2022-11-16T11:28:17.294Z,47.12
2022-11-16T11:29:51.558Z,46.77
2022-11-16T11:31:27.665Z,46.77
2022-11-16T11:32:59.814Z,46.67
2022-11-16T11:34:32.904Z,45.58
2022-11-16T11:36:05.995Z,46.25
2022-11-16T11:37:38.152Z,47.01
2022-11-16T11:39:13.257Z,46.02
2022-11-16T11:40:57.821Z,46.38
2022-11-16T11:42:29.724Z,46.08
2022-11-16T11:44:03.608Z,46.44
2022-11-16T11:45:38.468Z,45.99
2022-11-16T11:49:10.121Z,45.71
2022-11-16T11:50:45.192Z,45.58
2022-11-16T11:52:22.171Z,44.53
2022-11-16T11:53:55.123Z,45.34
2022-11-16T11:55:27.212Z,44.66
2022-11-16T11:56:59.410Z,44.99
2022-11-16T11:58:35.862Z,44.31
2022-11-16T12:00:09.544Z,44.27
2022-11-16T12:01:55.458Z,44.71
2022-11-16T12:03:31.986Z,43.01
2022-11-16T12:05:07.177Z,42.57
2022-11-16T12:06:58.014Z,42.67
2022-11-16T12:08:34.950Z,42.48
2022-11-16T12:10:12.868Z,41.89
2022-11-16T12:12:03.300Z,42.25
2022-11-16T12:13:44.374Z,41.99
2022-11-16T12:15:16.454Z,41.61
2022-11-16T12:16:53.920Z,41.65
2022-11-16T12:18:35.167Z,41.36
2022-11-16T12:20:26.896Z,41.35
2022-11-16T12:22:01.795Z,42.47
2022-11-16T12:23:37.103Z,42.23
2022-11-16T12:25:18.346Z,42.46
2022-11-16T12:27:02.965Z,43.21
2022-11-16T12:28:48.422Z,43.44
2022-11-16T12:30:22.863Z,43.01
2022-11-16T12:33:34.434Z,43.29
2022-11-16T12:35:06.739Z,43.56
2022-11-16T12:36:51.319Z,43.95
2022-11-16T12:38:26.673Z,44.05
2022-11-16T12:40:17.119Z,43.98
2022-11-16T12:41:53.925Z,44.03
2022-11-16T12:43:35.107Z,44.01
2022-11-16T12:45:17.031Z,44.21
2022-11-16T12:46:52.096Z,44.47
2022-11-16T12:48:33.849Z,44.49
2022-11-16T12:50:15.652Z,44.28
2022-11-16T12:51:50.476Z,44.63
2022-11-16T12:53:34.326Z,44.41
2022-11-16T12:55:28.249Z,44.44
2022-11-16T12:57:08.537Z,44.70
2022-11-16T12:58:46.081Z,44.97
2022-11-16T13:00:18.890Z,45.27
2022-11-16T13:01:50.951Z,45.69
2022-11-16T13:03:39.974Z,45.51
2022-11-16T13:05:16.896Z,46.03
2022-11-16T13:06:50.805Z,46.29
2022-11-16T13:08:33.381Z,46.41
2022-11-16T13:10:14.555Z,45.87
2022-11-16T13:11:48.700Z,46.33
2022-11-16T13:13:39.582Z,46.48
2022-11-16T13:15:20.028Z,46.61
2022-11-16T13:16:52.081Z,46.86
2022-11-16T13:18:24.205Z,46.95
2022-11-16T13:20:15.247Z,46.09
2022-11-16T13:21:47.642Z,46.66
2022-11-16T13:23:31.859Z,46.72
2022-11-16T13:25:06.772Z,46.83
2022-11-16T13:26:41.187Z,46.87
2022-11-16T13:28:33.177Z,46.67
2022-11-16T13:30:15.337Z,47.14
2022-11-16T13:33:29.315Z,47.10
2022-11-16T13:35:01.204Z,47.54
2022-11-16T13:36:33.111Z,47.31
2022-11-16T13:38:04.991Z,47.56
2022-11-16T13:39:55.140Z,47.45
2022-11-16T13:41:28.840Z,46.90
2022-11-16T13:43:09.788Z,47.02
2022-11-16T13:44:41.887Z,47.37
2022-11-16T13:46:27.680Z,47.40
2022-11-16T13:48:10.886Z,47.78
2022-11-16T13:49:49.229Z,47.94
2022-11-16T13:51:21.904Z,47.98
2022-11-16T13:53:46.226Z,48.10
2022-11-16T13:54:55.458Z,48.47
2022-11-16T13:56:29.573Z,48.29
2022-11-16T13:58:02.926Z,48.68
2022-11-16T13:59:35.464Z,48.53
2022-11-16T14:01:10.996Z,48.94
2022-11-16T14:02:43.424Z,49.03
2022-11-16T14:04:33.963Z,48.92
2022-11-16T14:06:07.246Z,49.13
2022-11-16T14:07:43.290Z,49.12
2022-11-16T14:09:33.905Z,49.63
2022-11-16T14:11:06.549Z,49.57
2022-11-16T14:12:38.748Z,49.55
2022-11-16T14:14:33.203Z,49.86
2022-11-16T14:16:17.673Z,49.63
2022-11-16T14:17:53.845Z,49.80
2022-11-16T14:19:49.354Z,49.87
2022-11-16T14:21:36.304Z,49.93
2022-11-16T14:23:26.269Z,50.07
2022-11-16T14:25:14.932Z,50.26
2022-11-16T14:26:46.989Z,50.30
2022-11-16T14:28:24.800Z,50.55
2022-11-16T14:29:56.775Z,50.74
2022-11-16T14:33:01.500Z,50.96
2022-11-16T14:34:44.056Z,51.05
2022-11-16T14:36:15.991Z,51.42
2022-11-16T14:37:55.960Z,51.62
2022-11-16T14:39:32.569Z,51.83
2022-11-16T14:41:10.369Z,52.01
2022-11-16T14:43:10.014Z,52.28
2022-11-16T14:44:39.542Z,52.55
2022-11-16T14:46:17.990Z,52.75
2022-11-16T14:47:49.977Z,53.00
2022-11-16T14:49:22.321Z,53.39
2022-11-16T14:51:07.575Z,53.24
2022-11-16T14:52:44.299Z,53.62
2022-11-16T14:54:31.148Z,53.95
2022-11-16T14:56:15.963Z,54.21
2022-11-16T14:57:50.279Z,54.69
2022-11-16T14:59:22.494Z,54.97
2022-11-16T15:00:55.823Z,54.94
2022-11-16T15:02:27.731Z,55.22
2022-11-16T15:04:03.720Z,55.56
2022-11-16T15:07:13.383Z,55.70
2022-11-16T15:08:46.126Z,55.47
2022-11-16T15:10:19.417Z,55.58
2022-11-16T15:12:09.695Z,55.97
2022-11-16T15:13:41.668Z,56.28
2022-11-16T15:15:13.597Z,56.11
2022-11-16T15:16:49.550Z,56.37
2022-11-16T15:18:23.504Z,56.56
2022-11-16T15:19:56.223Z,56.52
2022-11-16T15:21:28.982Z,56.90
2022-11-16T15:23:01.518Z,57.07
2022-11-16T15:24:34.298Z,57.19
2022-11-16T15:26:06.361Z,57.54
2022-11-16T15:27:39.478Z,57.53
2022-11-16T15:29:15.322Z,57.97
2022-11-16T15:30:49.637Z,57.86
2022-11-16T15:32:21.735Z,57.92
2022-11-16T15:33:53.912Z,58.39
2022-11-16T15:35:32.800Z,58.47
2022-11-16T15:37:04.834Z,58.60
2022-11-16T15:38:38.001Z,58.80
2022-11-16T15:41:42.776Z,59.07
2022-11-16T15:43:14.794Z,59.26
2022-11-16T15:44:46.749Z,59.60
2022-11-16T15:46:18.685Z,60.10
2022-11-16T15:47:54.089Z,60.16
2022-11-16T15:49:29.161Z,59.83
2022-11-16T15:51:05.070Z,60.09
2022-11-16T15:52:46.120Z,60.59
2022-11-16T15:54:54.835Z,60.54
2022-11-16T15:56:26.738Z,60.88
2022-11-16T15:58:14.931Z,60.97
2022-11-16T15:59:48.150Z,61.19
2022-11-16T16:01:20.528Z,61.22
2022-11-16T16:02:52.559Z,61.39
2022-11-16T16:04:24.730Z,61.58
2022-11-16T16:05:56.710Z,61.77
2022-11-16T16:07:42.109Z,61.65
2022-11-16T16:09:19.152Z,61.97
2022-11-16T16:11:09.916Z,62.28
2022-11-16T16:12:51.646Z,62.11
2022-11-16T16:14:25.006Z,62.48
2022-11-16T16:16:15.604Z,63.35
2022-11-16T16:17:47.596Z,63.68
2022-11-16T16:19:28.572Z,63.83
2022-11-16T16:21:00.652Z,63.71
2022-11-16T16:22:38.604Z,63.97
2022-11-16T16:24:12.303Z,64.31
2022-11-16T16:25:50.145Z,64.77
2022-11-16T16:27:26.372Z,64.89
2022-11-16T16:30:40.091Z,65.04
2022-11-16T16:32:13.580Z,65.14
2022-11-16T16:33:45.881Z,65.35
2022-11-16T16:35:18.767Z,65.56
2022-11-16T16:36:51.107Z,65.48
2022-11-16T16:38:22.983Z,65.45
2022-11-16T16:39:54.918Z,65.27
2022-11-16T16:41:26.994Z,65.08
2022-11-16T16:42:59.320Z,65.14
2022-11-16T16:46:04.308Z,65.27
2022-11-16T16:47:36.251Z,65.47
2022-11-16T16:49:08.469Z,65.40
2022-11-16T16:50:40.473Z,65.14
2022-11-16T16:52:13.124Z,65.05
2022-11-16T16:53:45.084Z,65.05
2022-11-16T16:55:17.053Z,65.23
2022-11-16T16:56:48.917Z,65.43
2022-11-16T16:58:21.123Z,65.91
2022-11-16T16:59:53.148Z,65.74
2022-11-16T17:01:26.900Z,65.69
2022-11-16T17:02:58.969Z,65.71
2022-11-16T17:04:30.891Z,65.98
2022-11-16T17:06:03.002Z,65.70
2022-11-16T17:07:35.414Z,65.71
2022-11-16T17:09:07.380Z,65.49
2022-11-16T17:10:39.875Z,65.94
2022-11-16T17:12:11.836Z,65.83
2022-11-16T17:13:43.794Z,66.06
2022-11-16T17:15:19.331Z,66.14
2022-11-16T17:16:51.947Z,66.46
2022-11-16T17:18:23.998Z,66.10
2022-11-16T17:19:56.160Z,66.06
2022-11-16T17:21:28.241Z,65.83
2022-11-16T17:23:00.152Z,65.92
2022-11-16T17:24:32.112Z,66.32
2022-11-16T17:26:05.252Z,66.91
2022-11-16T17:27:37.228Z,66.76
2022-11-16T17:29:09.104Z,66.92
2022-11-16T17:30:41.112Z,66.61
2022-11-16T17:32:13.082Z,66.88
2022-11-16T17:33:45.048Z,66.88
2022-11-16T17:35:17.469Z,67.26
2022-11-16T17:36:49.766Z,67.56
2022-11-16T17:38:21.873Z,67.71
2022-11-16T17:39:54.075Z,67.86
2022-11-16T17:41:26.215Z,67.92
2022-11-16T17:42:58.337Z,67.56
2022-11-16T17:44:30.719Z,67.87
2022-11-16T17:46:06.631Z,67.64
2022-11-16T17:47:39.715Z,67.48
2022-11-16T17:49:11.756Z,67.43
2022-11-16T17:50:50.351Z,67.63
2022-11-16T17:52:22.232Z,67.36
2022-11-16T17:53:54.122Z,67.61
2022-11-16T17:55:26.134Z,67.58
2022-11-16T17:56:58.063Z,67.11
2022-11-16T17:58:30.539Z,67.10
2022-11-16T18:00:02.527Z,66.92
2022-11-16T18:01:34.661Z,66.89
2022-11-16T18:03:06.752Z,66.51
2022-11-16T18:04:38.623Z,66.78
2022-11-16T18:06:14.961Z,66.95
2022-11-16T18:07:47.278Z,66.90
2022-11-16T18:09:19.294Z,66.82
2022-11-16T18:10:51.223Z,66.97
2022-11-16T18:12:23.203Z,66.92
2022-11-16T18:13:55.956Z,67.25
2022-11-16T18:15:29.171Z,67.21
2022-11-16T18:17:01.338Z,67.62
2022-11-16T18:18:33.798Z,68.17
2022-11-16T18:20:07.445Z,68.26
2022-11-16T18:21:40.026Z,68.56
2022-11-16T18:23:12.137Z,68.92
2022-11-16T18:24:44.130Z,69.39
2022-11-16T18:26:17.232Z,70.11
2022-11-16T18:27:52.997Z,69.63
2022-11-16T18:29:24.954Z,69.30
2022-11-16T18:31:06.549Z,69.30
2022-11-16T18:32:38.730Z,69.06
2022-11-16T18:35:43.922Z,69.26
2022-11-16T18:37:15.821Z,69.85
2022-11-16T18:38:47.748Z,70.03
2022-11-16T18:40:19.960Z,70.30
2022-11-16T18:41:55.295Z,70.05
2022-11-16T18:43:27.492Z,71.30
2022-11-16T18:44:59.459Z,70.39
2022-11-16T18:46:32.553Z,71.71
2022-11-16T18:48:04.705Z,72.26
2022-11-16T18:49:38.900Z,72.00
2022-11-16T18:51:11.615Z,71.93
2022-11-16T18:52:46.872Z,72.54
2022-11-16T18:54:18.791Z,73.13
2022-11-16T18:55:56.527Z,73.19
2022-11-16T18:57:30.251Z,73.48
2022-11-16T18:59:02.567Z,73.30
2022-11-16T19:00:34.549Z,73.52
2022-11-16T19:02:06.468Z,73.64
2022-11-16T19:05:10.222Z,73.82
2022-11-16T19:06:42.255Z,73.77
2022-11-16T19:08:15.040Z,74.00
2022-11-16T19:09:46.865Z,73.15
2022-11-16T19:11:18.945Z,74.05
2022-11-16T19:12:50.876Z,74.14
2022-11-16T19:14:22.940Z,74.82
2022-11-16T19:15:57.611Z,74.96
2022-11-16T19:17:29.433Z,74.90
2022-11-16T19:19:04.216Z,74.44
2022-11-16T19:20:36.184Z,74.16
2022-11-16T19:22:08.144Z,74.82
2022-11-16T19:23:44.953Z,75.06
2022-11-16T19:25:16.898Z,75.47
2022-11-16T19:26:49.113Z,75.73
2022-11-16T19:28:21.026Z,75.63
2022-11-16T19:29:52.894Z,75.75
2022-11-16T19:31:29.208Z,75.69
2022-11-16T19:34:34.068Z,75.47
2022-11-16T19:36:13.086Z,75.48
2022-11-16T19:37:45.053Z,75.38
2022-11-16T19:39:17.269Z,75.39
2022-11-16T19:40:49.992Z,75.22
2022-11-16T19:42:22.015Z,75.15
2022-11-16T19:43:57.540Z,74.92
2022-11-16T19:45:29.747Z,74.47
2022-11-16T19:47:01.833Z,74.56
2022-11-16T19:48:34.040Z,73.68
2022-11-16T19:50:07.343Z,73.33
2022-11-16T19:51:39.190Z,73.29
2022-11-16T19:53:11.337Z,73.16
2022-11-16T19:54:43.276Z,73.90
2022-11-16T19:56:16.001Z,74.59
2022-11-16T19:57:48.481Z,74.44
2022-11-16T19:59:20.432Z,73.97
2022-11-16T20:00:52.387Z,73.62
2022-11-16T20:02:24.643Z,73.92
2022-11-16T20:03:57.565Z,73.75
2022-11-16T20:05:30.615Z,73.16
2022-11-16T20:07:02.524Z,72.97
2022-11-16T20:10:13.425Z,72.95
2022-11-16T20:11:45.411Z,73.21
2022-11-16T20:13:18.398Z,72.91
2022-11-16T20:14:50.423Z,72.84
2022-11-16T20:16:23.844Z,73.18
2022-11-16T20:17:55.758Z,72.60
2022-11-16T20:19:28.068Z,72.97
2022-11-16T20:21:05.386Z,73.22
2022-11-16T20:22:37.424Z,73.09
2022-11-16T20:24:13.803Z,73.20
2022-11-16T20:25:45.652Z,73.63
2022-11-16T20:27:17.462Z,74.35
2022-11-16T20:28:51.493Z,74.04
2022-11-16T20:30:23.330Z,74.19
2022-11-16T20:31:55.305Z,74.84
2022-11-16T20:33:27.126Z,74.77
2022-11-16T20:34:58.972Z,75.20
2022-11-16T20:36:31.594Z,75.75
2022-11-16T20:38:03.513Z,75.95
2022-11-16T20:39:36.497Z,76.53
2022-11-16T20:41:11.578Z,76.86
2022-11-16T20:42:43.462Z,76.30
2022-11-16T20:44:18.609Z,76.12
2022-11-16T20:45:53.854Z,75.97
2022-11-16T20:47:25.723Z,76.13
2022-11-16T20:48:59.650Z,76.21
2022-11-16T20:50:31.692Z,75.96
2022-11-16T20:55:49.610Z,79.11
2022-11-16T20:57:21.586Z,79.32
2022-11-16T20:58:53.637Z,79.61
2022-11-16T21:00:26.490Z,79.83
2022-11-16T21:01:58.474Z,79.92
2022-11-16T21:03:30.491Z,80.47
2022-11-16T21:05:02.489Z,80.59
2022-11-16T21:06:34.451Z,80.79
2022-11-16T21:08:06.630Z,80.68